createdAt,value
2019-06-27T00:02:16.061Z,100760.05
2019-06-27T00:04:46.491Z,100756.89
2019-06-27T00:07:17.006Z,100761.90
2019-06-27T00:09:47.315Z,100759.23
2019-06-27T00:12:18.112Z,100754.44
2019-06-27T00:14:48.666Z,100751.59
2019-06-27T00:17:20.561Z,100757.06
2019-06-27T00:19:52.821Z,100755.91
2019-06-27T00:22:23.532Z,100751.56
2019-06-27T00:24:54.831Z,100756.43
2019-06-27T00:27:28.046Z,100752.27
2019-06-27T00:29:58.418Z,100757.94
2019-06-27T00:32:28.743Z,100754.11
2019-06-27T00:34:59.201Z,100756.28
2019-06-27T00:37:29.566Z,100745.25
2019-06-27T00:39:59.849Z,100744.58
2019-06-27T00:42:30.380Z,100738.94
2019-06-27T00:45:00.703Z,100737.60
2019-06-27T00:47:31.522Z,100743.25
2019-06-27T00:50:03.713Z,100735.25
2019-06-27T00:52:34.222Z,100739.25
2019-06-27T00:55:04.803Z,100734.41
2019-06-27T00:57:35.331Z,100736.23
2019-06-27T01:00:06.178Z,100737.22
2019-06-27T01:02:36.988Z,100738.37
2019-06-27T01:05:09.197Z,100738.55
2019-06-27T01:07:39.997Z,100730.38
2019-06-27T01:10:11.651Z,100733.35
2019-06-27T01:12:42.238Z,100731.22
2019-06-27T01:15:21.027Z,100735.04
2019-06-27T01:17:58.888Z,100736.90
2019-06-27T01:20:33.246Z,100724.55
2019-06-27T01:23:04.247Z,100728.03
2019-06-27T01:25:34.676Z,100723.53
2019-06-27T01:28:05.062Z,100714.83
2019-06-27T01:30:35.448Z,100717.31
2019-06-27T01:33:05.796Z,100717.27
2019-06-27T01:35:36.201Z,100723.70
2019-06-27T01:38:07.122Z,100721.03
2019-06-27T01:40:37.445Z,100725.22
2019-06-27T01:43:07.872Z,100727.20
2019-06-27T01:45:44.870Z,100718.11
2019-06-27T01:48:15.262Z,100722.36
2019-06-27T01:50:45.601Z,100716.55
2019-06-27T01:53:16.057Z,100717.12
2019-06-27T01:55:46.531Z,100715.13
2019-06-27T01:58:16.847Z,100713.94
2019-06-27T02:00:47.212Z,100709.48
2019-06-27T02:03:17.589Z,100712.16
2019-06-27T02:05:47.958Z,100709.64
2019-06-27T02:08:19.192Z,100712.20
2019-06-27T02:10:49.661Z,100714.92
2019-06-27T02:13:19.958Z,100711.28
2019-06-27T02:15:50.478Z,100708.97
2019-06-27T02:18:20.757Z,100710.39
2019-06-27T02:20:51.228Z,100704.93
2019-06-27T02:23:21.616Z,100705.24
2019-06-27T02:25:51.950Z,100705.73
2019-06-27T02:28:22.294Z,100701.19
2019-06-27T02:30:52.805Z,100706.39
2019-06-27T02:33:23.156Z,100701.37
2019-06-27T02:35:53.433Z,100701.86
2019-06-27T02:38:23.913Z,100699.02
2019-06-27T02:40:58.408Z,100704.84
2019-06-27T02:43:26.953Z,100691.50
2019-06-27T02:45:57.385Z,100691.58
2019-06-27T02:48:27.840Z,100693.75
2019-06-27T02:50:59.228Z,100683.75
2019-06-27T02:53:29.673Z,100684.92
2019-06-27T02:56:00.027Z,100691.37
2019-06-27T02:58:32.388Z,100694.03
2019-06-27T03:01:02.629Z,100683.97
2019-06-27T03:03:32.992Z,100686.77
2019-06-27T03:06:03.419Z,100695.53
2019-06-27T03:08:33.780Z,100689.08
2019-06-27T03:11:04.077Z,100683.17
2019-06-27T03:13:34.647Z,100678.78
2019-06-27T03:16:05.121Z,100683.61
2019-06-27T03:18:35.782Z,100679.47
2019-06-27T03:21:06.208Z,100673.50
2019-06-27T03:23:37.318Z,100668.45
2019-06-27T03:26:07.671Z,100667.14
2019-06-27T03:28:52.097Z,100667.98
2019-06-27T03:31:10.363Z,100672.89
2019-06-27T03:33:40.973Z,100668.17
2019-06-27T03:36:11.298Z,100666.01
2019-06-27T03:38:42.253Z,100662.29
2019-06-27T03:41:12.820Z,100659.20
2019-06-27T03:43:43.152Z,100651.35
2019-06-27T03:46:13.529Z,100662.75
2019-06-27T03:48:43.850Z,100663.84
2019-06-27T03:51:14.304Z,100661.61
2019-06-27T03:53:44.799Z,100666.08
2019-06-27T03:56:15.110Z,100664.66
2019-06-27T03:58:45.502Z,100662.56
2019-06-27T04:01:16.017Z,100656.88
2019-06-27T04:03:46.374Z,100657.47
2019-06-27T04:06:16.868Z,100663.75
2019-06-27T04:08:47.249Z,100667.13
2019-06-27T04:11:17.620Z,100667.66
2019-06-27T04:13:47.963Z,100672.28
2019-06-27T04:16:18.528Z,100668.80
2019-06-27T04:18:48.977Z,100664.59
2019-06-27T04:21:19.306Z,100665.67
2019-06-27T04:23:49.703Z,100670.87
2019-06-27T04:26:20.088Z,100665.27
2019-06-27T04:28:50.452Z,100668.17
2019-06-27T04:31:20.925Z,100663.56
2019-06-27T04:33:51.378Z,100661.61
2019-06-27T04:36:21.821Z,100662.56
2019-06-27T04:38:52.216Z,100657.59
2019-06-27T04:41:23.489Z,100663.14
2019-06-27T04:43:53.845Z,100665.48
2019-06-27T04:46:24.352Z,100664.81
2019-06-27T04:48:58.785Z,100663.09
2019-06-27T04:51:29.142Z,100663.48
2019-06-27T04:54:10.581Z,100658.79
2019-06-27T04:56:40.967Z,100662.06
2019-06-27T04:59:11.452Z,100667.11
2019-06-27T05:01:42.199Z,100665.09
2019-06-27T05:04:12.631Z,100670.09
2019-06-27T05:06:43.177Z,100675.02
2019-06-27T05:09:13.549Z,100666.66
2019-06-27T05:11:44.016Z,100673.92
2019-06-27T05:14:14.396Z,100670.84
2019-06-27T05:16:44.820Z,100668.46
2019-06-27T05:19:15.450Z,100672.83
2019-06-27T05:21:45.874Z,100668.34
2019-06-27T05:24:16.213Z,100670.39
2019-06-27T05:26:46.647Z,100674.31
2019-06-27T05:29:16.990Z,100670.03
2019-06-27T05:31:47.448Z,100670.59
2019-06-27T05:34:17.823Z,100670.27
2019-06-27T05:36:48.145Z,100667.63
2019-06-27T05:39:18.483Z,100672.97
2019-06-27T05:41:50.552Z,100662.92
2019-06-27T05:44:21.149Z,100665.94
2019-06-27T05:46:51.547Z,100665.77
2019-06-27T05:49:21.914Z,100664.41
2019-06-27T05:51:52.649Z,100668.70
2019-06-27T05:54:22.968Z,100670.00
2019-06-27T05:56:53.504Z,100665.55
2019-06-27T05:59:23.881Z,100672.69
2019-06-27T06:01:54.537Z,100665.60
2019-06-27T06:04:24.983Z,100665.33
2019-06-27T06:06:55.397Z,100666.55
2019-06-27T06:09:25.814Z,100661.40
2019-06-27T06:11:56.359Z,100656.75
2019-06-27T06:14:27.132Z,100655.09
2019-06-27T06:16:58.179Z,100649.69
2019-06-27T06:19:28.765Z,100650.25
2019-06-27T06:21:59.281Z,100647.20
2019-06-27T06:24:29.645Z,100650.08
2019-06-27T06:27:00.130Z,100646.59
2019-06-27T06:29:30.545Z,100641.66
2019-06-27T06:32:00.870Z,100644.63
2019-06-27T06:34:31.276Z,100636.03
2019-06-27T06:37:02.116Z,100636.81
2019-06-27T06:39:33.158Z,100636.80
2019-06-27T06:42:03.695Z,100631.80
2019-06-27T06:44:34.460Z,100635.92
2019-06-27T06:47:07.151Z,100630.47
2019-06-27T06:49:37.456Z,100631.26
2019-06-27T06:52:07.767Z,100633.41
2019-06-27T06:54:38.307Z,100628.17
2019-06-27T06:57:08.795Z,100620.94
2019-06-27T06:59:39.173Z,100627.57
2019-06-27T07:02:09.740Z,100628.72
2019-06-27T07:04:40.069Z,100618.78
2019-06-27T07:07:13.109Z,100621.03
2019-06-27T07:09:42.559Z,100606.12
2019-06-27T07:12:12.969Z,100617.14
2019-06-27T07:14:43.363Z,100611.23
2019-06-27T07:17:13.810Z,100606.91
2019-06-27T07:19:44.138Z,100605.31
2019-06-27T07:22:14.528Z,100603.76
2019-06-27T07:24:44.916Z,100606.84
2019-06-27T07:27:15.343Z,100596.56
2019-06-27T07:29:45.721Z,100595.08
2019-06-27T07:32:16.163Z,100586.53
2019-06-27T07:34:46.535Z,100587.28
2019-06-27T07:37:16.858Z,100589.66
2019-06-27T07:39:47.344Z,100579.62
2019-06-27T07:42:17.672Z,100579.44
2019-06-27T07:44:48.028Z,100576.70
2019-06-27T07:47:18.443Z,100573.27
2019-06-27T07:49:48.931Z,100562.84
2019-06-27T07:52:19.384Z,100567.59
2019-06-27T07:54:50.217Z,100565.59
2019-06-27T07:57:23.201Z,100566.86
2019-06-27T07:59:53.674Z,100561.84
2019-06-27T08:02:24.047Z,100560.13
2019-06-27T08:04:54.515Z,100560.29
2019-06-27T08:07:25.957Z,100556.34
2019-06-27T08:09:56.335Z,100557.47
2019-06-27T08:12:26.680Z,100557.58
2019-06-27T08:14:58.171Z,100545.55
2019-06-27T08:17:28.893Z,100544.41
2019-06-27T08:19:59.434Z,100548.49
2019-06-27T08:22:29.976Z,100551.78
2019-06-27T08:25:00.441Z,100542.52
2019-06-27T08:27:31.023Z,100538.95
2019-06-27T08:30:02.064Z,100538.47
2019-06-27T08:32:33.175Z,100542.86
2019-06-27T08:35:03.959Z,100534.32
2019-06-27T08:37:34.420Z,100535.53
2019-06-27T08:40:05.048Z,100528.64
2019-06-27T08:42:35.670Z,100528.03
2019-06-27T08:45:06.333Z,100526.62
2019-06-27T08:47:56.530Z,100521.58
2019-06-27T08:50:26.934Z,100519.45
2019-06-27T08:53:00.346Z,100515.56
2019-06-27T08:55:29.475Z,100516.13
2019-06-27T08:58:00.084Z,100517.95
2019-06-27T09:00:32.584Z,100513.45
2019-06-27T09:03:04.728Z,100509.54
2019-06-27T09:05:35.940Z,100507.18
2019-06-27T09:08:06.507Z,100495.56
2019-06-27T09:10:37.006Z,100500.59
2019-06-27T09:13:07.333Z,100504.09
2019-06-27T09:15:52.674Z,100500.41
2019-06-27T09:18:25.734Z,100495.28
2019-06-27T09:20:59.444Z,100497.38
2019-06-27T09:23:29.995Z,100486.42
2019-06-27T09:26:00.419Z,100480.22
2019-06-27T09:28:33.224Z,100480.77
2019-06-27T09:31:05.413Z,100479.70
2019-06-27T09:33:35.830Z,100477.90
2019-06-27T09:36:06.473Z,100470.34
2019-06-27T09:38:36.848Z,100464.95
2019-06-27T09:41:07.304Z,100471.72
2019-06-27T09:43:37.753Z,100463.91
2019-06-27T09:46:08.131Z,100453.36
2019-06-27T09:48:38.524Z,100449.78
2019-06-27T09:51:09.123Z,100453.58
2019-06-27T09:53:39.671Z,100447.45
2019-06-27T09:56:10.122Z,100446.41
2019-06-27T09:59:09.445Z,100434.91
2019-06-27T10:01:39.885Z,100432.61
2019-06-27T10:04:10.360Z,100427.94
2019-06-27T10:06:40.690Z,100428.09
2019-06-27T10:09:11.060Z,100423.70
2019-06-27T10:11:41.440Z,100425.56
2019-06-27T10:14:12.281Z,100420.92
2019-06-27T10:16:43.721Z,100408.17
2019-06-27T10:19:14.160Z,100405.33
2019-06-27T10:21:44.618Z,100402.24
2019-06-27T10:24:15.039Z,100402.09
2019-06-27T10:26:45.457Z,100393.59
2019-06-27T10:29:15.870Z,100396.91
2019-06-27T10:31:46.389Z,100389.84
2019-06-27T10:34:16.798Z,100387.03
2019-06-27T10:36:47.155Z,100384.89
2019-06-27T10:39:17.644Z,100390.36
2019-06-27T10:41:48.063Z,100379.27
2019-06-27T10:44:18.494Z,100365.20
2019-06-27T10:46:48.963Z,100371.03
2019-06-27T10:49:19.869Z,100371.92
2019-06-27T10:51:50.208Z,100361.19
2019-06-27T10:54:20.573Z,100358.78
2019-06-27T10:56:50.991Z,100358.35
2019-06-27T10:59:21.455Z,100350.25
2019-06-27T11:01:51.864Z,100347.59
2019-06-27T11:04:22.364Z,100347.20
2019-06-27T11:06:52.783Z,100348.79
2019-06-27T11:09:23.187Z,100341.61
2019-06-27T11:11:53.937Z,100337.45
2019-06-27T11:14:24.376Z,100333.70
2019-06-27T11:16:54.900Z,100334.98
2019-06-27T11:19:25.407Z,100339.15
2019-06-27T11:21:55.725Z,100325.85
2019-06-27T11:24:26.151Z,100323.16
2019-06-27T11:26:56.556Z,100314.23
2019-06-27T11:29:26.866Z,100313.42
2019-06-27T11:31:57.247Z,100315.13
2019-06-27T11:34:27.854Z,100312.48
2019-06-27T11:36:58.217Z,100308.31
2019-06-27T11:39:28.601Z,100307.48
2019-06-27T11:41:59.037Z,100309.51
2019-06-27T11:44:29.509Z,100303.76
2019-06-27T11:46:59.865Z,100298.25
2019-06-27T11:49:30.305Z,100295.25
2019-06-27T11:52:01.025Z,100289.13
2019-06-27T11:54:31.430Z,100290.66
2019-06-27T11:57:01.820Z,100289.67
2019-06-27T11:59:32.221Z,100283.44
2019-06-27T12:02:02.653Z,100282.80
2019-06-27T12:04:33.252Z,100275.66
2019-06-27T12:07:03.644Z,100267.14
2019-06-27T12:09:34.457Z,100261.19
2019-06-27T12:12:04.974Z,100268.38
2019-06-27T12:14:35.285Z,100265.05
2019-06-27T12:17:05.655Z,100266.47
2019-06-27T12:19:36.076Z,100261.71
2019-06-27T12:22:06.611Z,100259.13
2019-06-27T12:24:37.102Z,100261.63
2019-06-27T12:27:07.893Z,100257.83
2019-06-27T12:29:38.332Z,100256.24
2019-06-27T12:32:09.276Z,100246.72
2019-06-27T12:34:39.695Z,100241.72
2019-06-27T12:37:10.128Z,100241.52
2019-06-27T12:39:40.528Z,100237.91
2019-06-27T12:42:10.839Z,100231.64
2019-06-27T12:44:41.160Z,100235.09
2019-06-27T12:47:11.644Z,100236.96
2019-06-27T12:50:00.569Z,100237.80
2019-06-27T12:52:14.161Z,100232.16
2019-06-27T12:54:44.597Z,100235.02
2019-06-27T12:57:15.040Z,100224.47
2019-06-27T12:59:45.358Z,100227.95
2019-06-27T13:02:15.870Z,100223.91
2019-06-27T13:04:46.796Z,100213.33
2019-06-27T13:07:17.214Z,100212.17
2019-06-27T13:09:48.240Z,100211.22
2019-06-27T13:12:18.633Z,100205.67
2019-06-27T13:14:49.147Z,100192.20
2019-06-27T13:17:19.564Z,100190.97
2019-06-27T13:19:49.950Z,100195.05
2019-06-27T13:22:20.400Z,100185.34
2019-06-27T13:24:51.119Z,100194.45
2019-06-27T13:27:21.676Z,100188.73
2019-06-27T13:29:52.116Z,100183.27
2019-06-27T13:32:25.518Z,100180.46
2019-06-27T13:34:55.333Z,100177.97
2019-06-27T13:37:25.650Z,100178.12
2019-06-27T13:39:56.140Z,100178.91
2019-06-27T13:42:26.610Z,100172.53
2019-06-27T13:44:57.013Z,100164.96
2019-06-27T13:47:27.399Z,100172.30
2019-06-27T13:49:58.196Z,100168.30
2019-06-27T13:52:28.685Z,100163.78
2019-06-27T13:54:59.120Z,100162.37
2019-06-27T13:57:29.518Z,100158.38
2019-06-27T14:00:01.353Z,100156.76
2019-06-27T14:02:32.050Z,100151.20
2019-06-27T14:05:02.818Z,100152.11
2019-06-27T14:07:33.257Z,100141.10
2019-06-27T14:10:03.991Z,100139.48
2019-06-27T14:12:34.623Z,100138.60
2019-06-27T14:15:05.418Z,100132.78
2019-06-27T14:17:35.921Z,100131.23
2019-06-27T14:20:06.550Z,100132.50
2019-06-27T14:22:36.981Z,100126.23
2019-06-27T14:25:08.059Z,100121.02
2019-06-27T14:27:38.712Z,100114.02
2019-06-27T14:30:09.554Z,100114.69
2019-06-27T14:32:40.014Z,100110.69
2019-06-27T14:35:16.017Z,100105.45
2019-06-27T14:37:42.897Z,100101.94
2019-06-27T14:40:13.562Z,100099.84
2019-06-27T14:42:44.298Z,100097.94
2019-06-27T14:45:15.321Z,100093.48
2019-06-27T14:47:45.707Z,100092.59
2019-06-27T14:50:16.233Z,100085.65
2019-06-27T14:52:47.332Z,100079.98
2019-06-27T14:55:17.882Z,100071.80
2019-06-27T14:57:48.861Z,100072.23
2019-06-27T15:00:19.661Z,100077.54
2019-06-27T15:02:50.157Z,100079.20
2019-06-27T15:05:31.810Z,100075.63
2019-06-27T15:07:52.764Z,100065.05
2019-06-27T15:10:23.245Z,100069.62
2019-06-27T15:12:57.318Z,100065.73
2019-06-27T15:15:25.942Z,100061.41
2019-06-27T15:17:56.464Z,100047.42
2019-06-27T15:20:26.760Z,100048.67
2019-06-27T15:22:57.290Z,100047.92
2019-06-27T15:25:34.434Z,100046.45
2019-06-27T15:28:04.880Z,100041.48
2019-06-27T15:30:35.448Z,100039.70
2019-06-27T15:33:05.860Z,100035.34
2019-06-27T15:35:50.976Z,100037.42
2019-06-27T15:38:09.036Z,100028.08
2019-06-27T15:40:39.379Z,100030.39
2019-06-27T15:43:09.891Z,100027.58
2019-06-27T15:45:40.517Z,100021.39
2019-06-27T15:48:10.897Z,100016.92
2019-06-27T15:50:41.277Z,100018.22
2019-06-27T15:53:11.734Z,100019.17
2019-06-27T15:55:42.233Z,100011.03
2019-06-27T15:58:12.728Z,100008.98
2019-06-27T16:00:43.117Z,100004.07
2019-06-27T16:03:14.085Z,100008.39
2019-06-27T16:05:44.607Z,100006.70
2019-06-27T16:08:15.053Z,100007.25
2019-06-27T16:10:45.698Z,100000.16
2019-06-27T16:13:16.198Z,99995.13
2019-06-27T16:15:46.657Z,99996.59
2019-06-27T16:18:17.168Z,99994.65
2019-06-27T16:20:47.969Z,99991.83
2019-06-27T16:23:18.394Z,99992.53
2019-06-27T16:25:49.217Z,99990.20
2019-06-27T16:28:19.655Z,99991.05
2019-06-27T16:30:50.032Z,99986.22
2019-06-27T16:33:20.398Z,99991.52
2019-06-27T16:35:50.848Z,99989.26
2019-06-27T16:38:21.249Z,99994.97
2019-06-27T16:40:51.624Z,100000.48
2019-06-27T16:43:22.105Z,99995.58
2019-06-27T16:45:52.455Z,99993.12
2019-06-27T16:48:22.799Z,99996.69
2019-06-27T16:50:53.247Z,100000.35
2019-06-27T16:53:23.758Z,99997.66
2019-06-27T16:55:54.145Z,99992.00
2019-06-27T16:58:24.829Z,99990.40
2019-06-27T17:00:55.272Z,99990.08
2019-06-27T17:03:27.419Z,99988.92
2019-06-27T17:05:57.741Z,99984.69
2019-06-27T17:08:28.210Z,99979.83
2019-06-27T17:10:58.995Z,99983.06
2019-06-27T17:13:29.450Z,99982.07
2019-06-27T17:15:59.823Z,99984.22
2019-06-27T17:18:30.356Z,99979.30
2019-06-27T17:21:00.807Z,99981.98
2019-06-27T17:23:31.173Z,99981.45
2019-06-27T17:26:01.581Z,99981.89
2019-06-27T17:28:35.035Z,99981.89
2019-06-27T17:31:04.551Z,99987.73
2019-06-27T17:33:34.955Z,99979.77
2019-06-27T17:36:05.383Z,99980.38
2019-06-27T17:38:35.871Z,99974.62
2019-06-27T17:41:06.307Z,99973.95
2019-06-27T17:43:36.681Z,99978.58
2019-06-27T17:46:07.229Z,99970.87
2019-06-27T17:48:37.698Z,99980.70
2019-06-27T17:51:08.368Z,99988.69
2019-06-27T17:53:38.713Z,99989.24
2019-06-27T17:56:09.193Z,99989.31
2019-06-27T17:58:39.516Z,99984.71
2019-06-27T18:01:09.883Z,99987.56
2019-06-27T18:03:40.405Z,99985.60
2019-06-27T18:06:10.776Z,99986.33
2019-06-27T18:08:41.095Z,99985.60
2019-06-27T18:11:11.525Z,99989.02
2019-06-27T18:13:42.699Z,99989.59
2019-06-27T18:16:13.210Z,99984.14
2019-06-27T18:18:43.593Z,99984.89
2019-06-27T18:21:14.026Z,99986.52
2019-06-27T18:23:53.955Z,99983.70
2019-06-27T18:26:26.523Z,99985.87
2019-06-27T18:29:21.568Z,99980.11
2019-06-27T18:31:53.470Z,99993.84
2019-06-27T18:34:24.529Z,99992.77
2019-06-27T18:36:55.042Z,99988.97
2019-06-27T18:39:25.644Z,99986.22
2019-06-27T18:41:56.098Z,99992.73
2019-06-27T18:44:26.815Z,99988.56
2019-06-27T18:46:57.456Z,99997.13
2019-06-27T18:49:28.999Z,99990.95
2019-06-27T18:51:59.671Z,99992.91
2019-06-27T18:54:30.048Z,99991.20
2019-06-27T18:57:01.384Z,99984.92
2019-06-27T18:59:31.796Z,99989.26
2019-06-27T19:02:02.206Z,99991.53
2019-06-27T19:04:32.719Z,99997.92
2019-06-27T19:07:05.703Z,99995.67
2019-06-27T19:09:36.070Z,99993.42
2019-06-27T19:12:06.543Z,99999.11
2019-06-27T19:14:36.999Z,99988.20
2019-06-27T19:17:07.546Z,99991.59
2019-06-27T19:19:39.799Z,99988.30
2019-06-27T19:22:28.907Z,99995.11
2019-06-27T19:25:07.272Z,99994.00
2019-06-27T19:27:39.136Z,99988.37
2019-06-27T19:30:10.546Z,99987.23
2019-06-27T19:32:41.084Z,99993.87
2019-06-27T19:35:11.529Z,99992.95
2019-06-27T19:37:41.957Z,99993.92
2019-06-27T19:40:12.436Z,99990.17
2019-06-27T19:42:42.933Z,99989.46
2019-06-27T19:45:13.831Z,99991.98
2019-06-27T19:47:44.155Z,99981.67
2019-06-27T19:50:14.915Z,99985.37
2019-06-27T19:52:45.343Z,99981.83
2019-06-27T19:55:15.791Z,99985.14
2019-06-27T19:57:46.176Z,99976.77
2019-06-27T20:00:17.801Z,99973.80
2019-06-27T20:02:48.494Z,99968.97
2019-06-27T20:05:19.564Z,99963.07
2019-06-27T20:07:49.984Z,99966.48
2019-06-27T20:10:21.036Z,99968.65
2019-06-27T20:12:52.792Z,99955.96
2019-06-27T20:15:27.195Z,99959.48
2019-06-27T20:17:57.661Z,99958.09
2019-06-27T20:20:28.416Z,99957.38
2019-06-27T20:22:59.050Z,99955.15
2019-06-27T20:25:29.404Z,99955.23
2019-06-27T20:28:01.986Z,99959.33
2019-06-27T20:30:33.181Z,99963.15
2019-06-27T20:33:14.036Z,99961.56
2019-06-27T20:35:55.622Z,99961.11
2019-06-27T20:38:35.047Z,99957.70
2019-06-27T20:41:01.097Z,99951.86
2019-06-27T20:43:36.406Z,99948.66
2019-06-27T20:46:09.289Z,99950.42
2019-06-27T20:49:01.849Z,99946.20
2019-06-27T20:51:32.417Z,99932.02
2019-06-27T20:54:27.790Z,99933.45
2019-06-27T20:57:03.372Z,99937.09
2019-06-27T20:59:34.256Z,99932.18
2019-06-27T21:02:23.962Z,99927.55
2019-06-27T21:04:54.487Z,99923.37
2019-06-27T21:07:24.849Z,99923.37
2019-06-27T21:09:56.373Z,99930.08
2019-06-27T21:12:26.962Z,99927.33
2019-06-27T21:14:57.572Z,99925.45
2019-06-27T21:17:28.064Z,99927.84
2019-06-27T21:20:00.305Z,99912.61
2019-06-27T21:22:33.021Z,99913.08
2019-06-27T21:25:06.203Z,99915.45
2019-06-27T21:27:36.983Z,99913.98
2019-06-27T21:30:09.781Z,99914.10
2019-06-27T21:32:40.181Z,99902.61
2019-06-27T21:35:24.513Z,99897.13
2019-06-27T21:37:55.735Z,99879.89
2019-06-27T21:40:29.061Z,99887.15
2019-06-27T21:43:00.167Z,99885.00
2019-06-27T21:45:30.599Z,99882.64
2019-06-27T21:48:01.737Z,99874.83
2019-06-27T21:50:32.370Z,99870.13
2019-06-27T21:53:03.185Z,99861.34
2019-06-27T21:55:34.630Z,99863.27
2019-06-27T21:58:06.321Z,99864.93
2019-06-27T22:00:39.404Z,99860.41
2019-06-27T22:03:10.027Z,99855.27
2019-06-27T22:05:41.517Z,99855.20
2019-06-27T22:08:12.023Z,99864.37
2019-06-27T22:10:42.587Z,99856.55
2019-06-27T22:13:12.948Z,99845.30
2019-06-27T22:15:43.296Z,99841.23
2019-06-27T22:18:15.401Z,99840.00
2019-06-27T22:20:47.120Z,99845.56
2019-06-27T22:23:17.485Z,99840.42
2019-06-27T22:25:48.987Z,99841.31
2019-06-27T22:28:19.395Z,99841.83
2019-06-27T22:30:51.977Z,99832.47
2019-06-27T22:33:24.546Z,99839.07
2019-06-27T22:35:55.503Z,99829.31
2019-06-27T22:38:43.333Z,99829.20
2019-06-27T22:41:31.743Z,99815.34
2019-06-27T22:44:19.322Z,99814.11
2019-06-27T22:47:07.083Z,99805.30
2019-06-27T22:49:36.996Z,99804.14
2019-06-27T22:52:26.905Z,99793.28
2019-06-27T22:54:59.474Z,99788.71
2019-06-27T22:57:30.421Z,99803.11
2019-06-27T23:00:03.277Z,99799.41
2019-06-27T23:02:34.285Z,99795.82
2019-06-27T23:05:05.876Z,99795.32
2019-06-27T23:07:36.283Z,99804.75
2019-06-27T23:10:14.595Z,99797.78
2019-06-27T23:12:45.065Z,99805.25
2019-06-27T23:15:15.491Z,99797.98
2019-06-27T23:17:45.955Z,99801.86
2019-06-27T23:20:16.755Z,99794.06
2019-06-27T23:22:47.179Z,99789.61
2019-06-27T23:25:17.558Z,99789.02
2019-06-27T23:27:48.072Z,99795.19
2019-06-27T23:30:18.689Z,99790.56
2019-06-27T23:32:49.040Z,99785.55
2019-06-27T23:35:19.509Z,99792.23
2019-06-27T23:37:49.989Z,99786.48
2019-06-27T23:40:20.381Z,99782.27
2019-06-27T23:42:50.694Z,99792.44
2019-06-27T23:45:21.559Z,99796.33
2019-06-27T23:47:51.905Z,99780.72
2019-06-27T23:50:22.276Z,99784.23
2019-06-27T23:52:52.799Z,99781.97
2019-06-27T23:55:25.970Z,99773.34
2019-06-27T23:57:56.387Z,99769.01
